createdAt,value
2023-01-23T00:01:13.130Z,9.70
2023-01-23T00:03:40.083Z,9.67
2023-01-23T00:06:12.349Z,9.71
2023-01-23T00:08:40.740Z,9.66
2023-01-23T00:11:11.139Z,9.78
2023-01-23T00:13:38.202Z,9.71
2023-01-23T00:16:08.289Z,9.80
2023-01-23T00:18:35.210Z,9.66
2023-01-23T00:21:10.843Z,9.70
2023-01-23T00:23:37.938Z,9.63
2023-01-23T00:26:11.791Z,9.60
2023-01-23T00:28:39.355Z,9.54
2023-01-23T00:31:10.431Z,9.43
2023-01-23T00:33:37.401Z,9.35
2023-01-23T00:36:04.572Z,9.34
2023-01-23T00:38:32.112Z,9.19
2023-01-23T00:40:59.238Z,9.11
2023-01-23T00:43:26.119Z,9.00
2023-01-23T00:45:52.975Z,8.98
2023-01-23T00:48:19.861Z,8.84
2023-01-23T00:50:47.158Z,8.97
2023-01-23T00:53:14.150Z,8.91
2023-01-23T00:55:41.781Z,8.73
2023-01-23T00:58:09.570Z,8.77
2023-01-23T01:00:38.323Z,8.75
2023-01-23T01:03:06.523Z,8.79
2023-01-23T01:05:34.999Z,8.73
2023-01-23T01:08:04.024Z,8.78
2023-01-23T01:10:32.895Z,8.78
2023-01-23T01:13:02.172Z,8.73
2023-01-23T01:15:29.794Z,8.82
2023-01-23T01:17:57.995Z,8.65
2023-01-23T01:20:26.674Z,8.70
2023-01-23T01:22:55.080Z,8.68
2023-01-23T01:25:22.435Z,8.79
2023-01-23T01:27:49.332Z,8.73
2023-01-23T01:30:18.552Z,8.70
2023-01-23T01:32:47.544Z,8.68
2023-01-23T01:35:14.399Z,8.68
2023-01-23T01:37:41.964Z,8.69
2023-01-23T01:40:13.704Z,8.68
2023-01-23T01:42:42.855Z,8.71
2023-01-23T01:45:47.107Z,8.69
2023-01-23T01:48:15.464Z,8.75
2023-01-23T01:50:42.748Z,8.74
2023-01-23T01:53:10.791Z,8.71
2023-01-23T01:55:39.463Z,8.71
2023-01-23T01:58:07.336Z,8.74
2023-01-23T02:00:34.240Z,8.85
2023-01-23T02:03:03.644Z,8.77
2023-01-23T02:05:46.530Z,8.66
2023-01-23T02:08:19.408Z,8.70
2023-01-23T02:10:47.517Z,8.76
2023-01-23T02:13:23.396Z,8.87
2023-01-23T02:15:52.895Z,8.77
2023-01-23T02:18:21.630Z,8.80
2023-01-23T02:20:53.212Z,8.94
2023-01-23T02:23:30.841Z,8.96
2023-01-23T02:26:11.310Z,8.82
2023-01-23T02:28:41.729Z,8.91
2023-01-23T02:31:09.647Z,8.94
2023-01-23T02:33:36.461Z,8.92
2023-01-23T02:36:05.669Z,8.93
2023-01-23T02:38:40.271Z,8.81
2023-01-23T02:41:12.033Z,8.89
2023-01-23T02:43:39.813Z,8.85
2023-01-23T02:46:11.403Z,8.80
2023-01-23T02:48:40.141Z,8.88
2023-01-23T02:51:07.644Z,8.87
2023-01-23T02:53:34.543Z,8.92
2023-01-23T02:56:01.371Z,8.81
2023-01-23T02:58:47.440Z,8.78
2023-01-23T03:01:14.249Z,8.65
2023-01-23T03:03:43.958Z,8.78
2023-01-23T03:06:11.699Z,8.69
2023-01-23T03:08:48.245Z,8.59
2023-01-23T03:11:18.183Z,8.61
2023-01-23T03:13:46.914Z,8.71
2023-01-23T03:16:14.400Z,8.63
2023-01-23T03:18:53.564Z,8.53
2023-01-23T03:21:21.668Z,8.49
2023-01-23T03:23:48.589Z,8.48
2023-01-23T03:26:18.168Z,8.42
2023-01-23T03:29:04.468Z,8.39
2023-01-23T03:31:31.291Z,8.33
2023-01-23T03:33:58.342Z,8.39
2023-01-23T03:36:25.239Z,8.44
2023-01-23T03:39:10.758Z,8.36
2023-01-23T03:41:39.250Z,8.41
2023-01-23T03:44:06.726Z,8.36
2023-01-23T03:46:33.571Z,8.26
2023-01-23T03:49:00.430Z,8.28
2023-01-23T03:51:27.431Z,8.16
2023-01-23T03:53:54.644Z,8.22
2023-01-23T03:56:21.720Z,8.16
2023-01-23T03:58:48.623Z,8.04
2023-01-23T04:01:15.536Z,8.07
2023-01-23T04:03:43.924Z,8.15
2023-01-23T04:06:10.952Z,8.25
2023-01-23T04:08:38.196Z,8.25
2023-01-23T04:11:08.075Z,8.33
2023-01-23T04:13:35.435Z,8.35
2023-01-23T04:16:02.779Z,8.25
2023-01-23T04:18:29.810Z,8.38
2023-01-23T04:20:57.471Z,8.25
2023-01-23T04:23:24.391Z,8.07
2023-01-23T04:25:52.778Z,8.02
2023-01-23T04:28:20.259Z,8.11
2023-01-23T04:30:51.272Z,8.12
2023-01-23T04:33:24.458Z,8.10
2023-01-23T04:35:57.614Z,7.92
2023-01-23T04:38:27.667Z,7.87
2023-01-23T04:40:55.217Z,8.02
2023-01-23T04:43:22.570Z,8.11
2023-01-23T04:45:55.750Z,7.98
2023-01-23T04:48:50.161Z,8.04
2023-01-23T04:51:17.732Z,8.05
2023-01-23T04:53:45.612Z,8.02
2023-01-23T04:56:12.462Z,7.97
2023-01-23T04:58:39.296Z,8.01
2023-01-23T05:01:08.092Z,8.15
2023-01-23T05:03:37.385Z,8.05
2023-01-23T05:06:04.514Z,7.96
2023-01-23T05:08:31.561Z,8.06
2023-01-23T05:11:11.686Z,7.95
2023-01-23T05:13:38.754Z,7.99
2023-01-23T05:16:06.538Z,8.06
2023-01-23T05:18:50.054Z,7.98
2023-01-23T05:21:16.895Z,8.08
2023-01-23T05:23:43.742Z,7.97
2023-01-23T05:26:13.295Z,7.92
2023-01-23T05:28:40.151Z,7.85
2023-01-23T05:31:07.141Z,7.88
2023-01-23T05:33:40.765Z,7.83
2023-01-23T05:36:08.085Z,7.88
2023-01-23T05:38:35.165Z,7.88
2023-01-23T05:41:03.651Z,7.85
2023-01-23T05:43:50.275Z,7.82
2023-01-23T05:46:28.418Z,7.96
2023-01-23T05:48:56.400Z,7.95
2023-01-23T05:51:24.833Z,7.91
2023-01-23T05:53:52.973Z,7.94
2023-01-23T05:56:20.122Z,7.96
2023-01-23T05:59:10.183Z,7.90
2023-01-23T06:01:45.106Z,7.81
2023-01-23T06:04:30.631Z,7.71
2023-01-23T06:07:17.828Z,7.83
2023-01-23T06:09:46.312Z,7.77
2023-01-23T06:12:13.743Z,7.76
2023-01-23T06:14:40.934Z,7.82
2023-01-23T06:17:08.914Z,7.66
2023-01-23T06:19:35.978Z,7.88
2023-01-23T06:22:03.841Z,7.74
2023-01-23T06:24:37.898Z,7.70
2023-01-23T06:27:08.376Z,7.66
2023-01-23T06:29:37.037Z,7.68
2023-01-23T06:32:04.679Z,7.66
2023-01-23T06:34:31.677Z,7.59
2023-01-23T06:37:02.957Z,7.48
2023-01-23T06:39:34.183Z,7.58
2023-01-23T06:42:02.037Z,7.49
2023-01-23T06:44:29.088Z,7.57
2023-01-23T06:46:56.157Z,7.50
2023-01-23T06:49:24.510Z,7.46
2023-01-23T06:51:52.212Z,7.43
2023-01-23T06:54:19.175Z,7.57
2023-01-23T06:56:46.210Z,7.65
2023-01-23T06:59:13.355Z,7.51
2023-01-23T07:01:41.085Z,7.60
2023-01-23T07:04:19.604Z,7.59
2023-01-23T07:07:08.167Z,7.58
2023-01-23T07:09:35.114Z,7.46
2023-01-23T07:12:08.128Z,7.49
2023-01-23T07:14:35.316Z,7.42
2023-01-23T07:17:02.726Z,7.43
2023-01-23T07:19:30.471Z,7.41
2023-01-23T07:22:01.173Z,7.41
2023-01-23T07:24:30.067Z,7.42
2023-01-23T07:26:56.850Z,7.48
2023-01-23T07:29:23.900Z,7.49
2023-01-23T07:31:50.765Z,7.34
2023-01-23T07:34:17.651Z,7.22
2023-01-23T07:36:44.472Z,7.32
2023-01-23T07:39:11.336Z,7.15
2023-01-23T07:41:38.136Z,7.13
2023-01-23T07:44:07.778Z,7.05
2023-01-23T07:46:34.826Z,7.08
2023-01-23T07:49:01.797Z,7.07
2023-01-23T07:51:28.729Z,6.99
2023-01-23T07:53:55.642Z,7.19
2023-01-23T07:56:22.560Z,7.14
2023-01-23T07:58:51.123Z,7.10
2023-01-23T08:01:19.376Z,7.13
2023-01-23T08:03:47.166Z,7.12
2023-01-23T08:06:14.894Z,6.90
2023-01-23T08:08:41.724Z,7.05
2023-01-23T08:11:12.861Z,7.00
2023-01-23T08:13:40.187Z,7.02
2023-01-23T08:16:07.885Z,6.93
2023-01-23T08:18:35.086Z,6.86
2023-01-23T08:21:03.425Z,6.87
2023-01-23T08:23:32.548Z,6.88
2023-01-23T08:26:02.124Z,6.85
2023-01-23T08:28:29.154Z,6.90
2023-01-23T08:30:59.979Z,6.89
2023-01-23T08:33:26.835Z,6.90
2023-01-23T08:35:56.665Z,6.80
2023-01-23T08:38:24.327Z,6.81
2023-01-23T08:40:53.646Z,6.93
2023-01-23T08:43:20.973Z,6.95
2023-01-23T08:45:52.924Z,6.94
2023-01-23T08:48:21.258Z,7.02
2023-01-23T08:50:48.862Z,7.12
2023-01-23T08:53:16.300Z,6.87
2023-01-23T08:55:43.460Z,6.76
2023-01-23T08:58:13.215Z,6.95
2023-01-23T09:00:40.721Z,6.98
2023-01-23T09:03:09.868Z,7.04
2023-01-23T09:05:38.070Z,6.89
2023-01-23T09:08:05.153Z,6.87
2023-01-23T09:10:32.266Z,6.98
2023-01-23T09:12:59.057Z,6.89
2023-01-23T09:15:25.882Z,6.83
2023-01-23T09:17:52.737Z,6.89
2023-01-23T09:20:19.907Z,6.97
2023-01-23T09:22:47.027Z,7.03
2023-01-23T09:25:14.461Z,6.91
2023-01-23T09:27:41.999Z,7.00
2023-01-23T09:30:09.497Z,6.99
2023-01-23T09:32:36.629Z,6.89
2023-01-23T09:35:04.520Z,6.96
2023-01-23T09:37:51.422Z,6.88
2023-01-23T09:40:22.724Z,6.96
2023-01-23T09:42:50.222Z,6.84
2023-01-23T09:45:21.504Z,6.17
2023-01-23T09:47:53.464Z,6.83
2023-01-23T09:50:31.630Z,6.68
2023-01-23T09:53:05.905Z,6.74
2023-01-23T09:55:49.115Z,6.79
2023-01-23T09:58:22.214Z,6.62
2023-01-23T10:00:51.634Z,6.73
2023-01-23T10:03:18.781Z,6.76
2023-01-23T10:06:00.676Z,6.67
2023-01-23T10:09:01.618Z,6.71
2023-01-23T10:11:49.873Z,6.88
2023-01-23T10:14:52.656Z,6.80
2023-01-23T10:17:44.452Z,6.61
2023-01-23T10:20:11.288Z,6.85
2023-01-23T10:22:47.433Z,6.85
2023-01-23T10:25:25.470Z,6.69
2023-01-23T10:27:58.620Z,6.69
2023-01-23T10:30:28.263Z,6.75
2023-01-23T10:33:02.466Z,6.71
2023-01-23T10:35:48.874Z,6.65
2023-01-23T10:38:49.167Z,6.67
2023-01-23T10:41:23.513Z,6.65
2023-01-23T10:43:55.530Z,6.53
2023-01-23T10:46:29.944Z,6.70
2023-01-23T10:48:56.925Z,6.64
2023-01-23T10:51:38.974Z,6.69
2023-01-23T10:54:11.316Z,6.68
2023-01-23T10:56:47.943Z,6.64
2023-01-23T10:59:35.366Z,6.72
2023-01-23T11:02:14.515Z,6.80
2023-01-23T11:04:54.435Z,6.82
2023-01-23T11:07:34.648Z,6.88
2023-01-23T11:10:12.448Z,6.80
2023-01-23T11:12:48.883Z,6.64
2023-01-23T11:15:22.466Z,6.70
2023-01-23T11:17:52.074Z,6.70
2023-01-23T11:20:31.855Z,6.80
2023-01-23T11:23:02.018Z,6.71
2023-01-23T11:25:32.450Z,6.78
2023-01-23T11:28:01.694Z,6.79
2023-01-23T11:30:42.377Z,6.80
2023-01-23T11:33:34.225Z,6.82
2023-01-23T11:36:19.371Z,6.75
2023-01-23T11:39:05.096Z,6.66
2023-01-23T11:41:35.346Z,6.70
2023-01-23T11:44:10.027Z,6.79
2023-01-23T11:46:53.595Z,6.79
2023-01-23T11:49:29.374Z,6.72
2023-01-23T11:52:08.237Z,6.70
2023-01-23T11:54:50.298Z,6.59
2023-01-23T11:57:30.642Z,6.57
2023-01-23T12:00:22.041Z,6.59
2023-01-23T12:03:19.631Z,6.61
2023-01-23T12:06:19.342Z,6.59
2023-01-23T12:08:49.811Z,6.75
2023-01-23T12:11:20.239Z,6.74
2023-01-23T12:14:19.858Z,6.65
2023-01-23T12:17:08.792Z,6.70
2023-01-23T12:19:41.832Z,6.88
2023-01-23T12:22:42.274Z,6.80
2023-01-23T12:25:44.086Z,6.67
2023-01-23T12:28:24.302Z,6.78
2023-01-23T12:31:15.735Z,6.57
2023-01-23T12:34:19.303Z,6.51
2023-01-23T12:37:09.907Z,6.71
2023-01-23T12:40:03.995Z,6.74
2023-01-23T12:42:42.125Z,6.40
2023-01-23T12:45:12.121Z,6.71
2023-01-23T12:47:42.340Z,6.57
2023-01-23T12:50:35.921Z,6.65
2023-01-23T12:53:11.127Z,6.65
2023-01-23T12:56:01.982Z,6.72
2023-01-23T12:58:32.151Z,6.78
2023-01-23T13:01:38.082Z,6.78
2023-01-23T13:04:34.470Z,6.76
2023-01-23T13:07:39.761Z,6.77
2023-01-23T13:10:59.476Z,6.79
2023-01-23T13:13:27.926Z,6.70
2023-01-23T13:16:15.675Z,6.74
2023-01-23T13:19:16.536Z,6.57
2023-01-23T13:22:18.902Z,6.56
2023-01-23T13:25:18.893Z,6.71
2023-01-23T13:27:49.581Z,6.64
2023-01-23T13:30:23.145Z,6.61
2023-01-23T13:32:51.734Z,6.68
2023-01-23T13:35:42.420Z,6.65
2023-01-23T13:38:21.449Z,6.56
2023-01-23T13:41:11.768Z,6.67
2023-01-23T13:43:53.409Z,6.58
2023-01-23T14:21:49.674Z,6.09
2023-01-23T14:24:42.757Z,6.28
2023-01-23T14:27:21.602Z,6.15
2023-01-23T14:30:09.778Z,6.28
2023-01-23T14:32:38.429Z,6.14
2023-01-23T14:35:18.922Z,6.18
2023-01-23T14:37:47.118Z,6.19
2023-01-23T14:40:26.550Z,6.23
2023-01-23T14:43:05.424Z,5.95
2023-01-23T14:45:33.885Z,5.84
2023-01-23T14:48:08.755Z,5.96
2023-01-23T14:50:36.346Z,5.93
2023-01-23T14:53:07.207Z,5.90
2023-01-23T14:55:41.322Z,5.81
2023-01-23T14:58:18.773Z,5.85
2023-01-23T15:00:49.101Z,5.73
2023-01-23T15:03:44.671Z,5.90
2023-01-23T15:06:31.515Z,5.85
2023-01-23T15:09:07.086Z,5.64
2023-01-23T15:11:34.612Z,5.84
2023-01-23T15:14:02.422Z,5.93
2023-01-23T15:16:38.267Z,5.63
2023-01-23T15:19:22.662Z,5.70
2023-01-23T15:21:50.067Z,5.78
2023-01-23T15:24:21.464Z,5.84
2023-01-23T15:27:05.909Z,5.77
2023-01-23T15:29:33.782Z,5.59
2023-01-23T15:32:01.485Z,5.60
2023-01-23T15:34:32.288Z,5.47
2023-01-23T15:37:20.855Z,5.64
2023-01-23T15:39:52.096Z,5.74
2023-01-23T15:42:18.727Z,5.71
2023-01-23T15:44:45.775Z,5.66
2023-01-23T15:47:12.637Z,5.66
2023-01-23T15:49:40.551Z,5.69
2023-01-23T15:52:23.504Z,5.56
2023-01-23T15:54:57.189Z,5.53
2023-01-23T15:57:24.154Z,5.53
2023-01-23T15:59:51.108Z,5.52
2023-01-23T16:02:39.398Z,5.48
2023-01-23T16:05:08.011Z,5.35
2023-01-23T16:07:37.632Z,5.55
2023-01-23T16:10:18.443Z,5.65
2023-01-23T16:12:48.852Z,5.54
2023-01-23T16:15:16.895Z,5.48
2023-01-23T16:17:44.577Z,5.64
2023-01-23T16:20:23.515Z,5.46
2023-01-23T16:22:53.840Z,5.50
2023-01-23T16:25:53.628Z,5.61
2023-01-23T16:28:23.080Z,5.53
2023-01-23T16:30:51.837Z,5.34
2023-01-23T16:33:20.135Z,5.41
2023-01-23T16:35:47.987Z,5.40
2023-01-23T16:38:20.996Z,4.81
2023-01-23T16:40:50.794Z,5.42
2023-01-23T16:43:17.756Z,5.37
2023-01-23T16:45:44.883Z,5.42
2023-01-23T16:48:21.690Z,5.36
2023-01-23T16:50:57.719Z,5.33
2023-01-23T16:53:28.118Z,5.14
2023-01-23T16:55:57.655Z,5.09
2023-01-23T16:58:39.288Z,5.09
2023-01-23T17:01:16.072Z,4.80
2023-01-23T17:03:44.392Z,5.15
2023-01-23T17:06:16.090Z,5.32
2023-01-23T17:08:43.280Z,5.16
2023-01-23T17:11:37.956Z,5.31
2023-01-23T17:14:09.093Z,5.43
2023-01-23T17:16:36.127Z,5.32
2023-01-23T17:19:10.438Z,5.24
2023-01-23T17:21:37.294Z,5.27
2023-01-23T17:24:04.443Z,5.29
2023-01-23T17:26:40.997Z,5.27
2023-01-23T17:29:08.709Z,5.22
2023-01-23T17:31:37.623Z,5.09
2023-01-23T17:34:05.488Z,5.02
2023-01-23T17:36:32.671Z,4.98
2023-01-23T17:39:00.184Z,5.08
2023-01-23T17:41:27.182Z,5.08
2023-01-23T17:43:54.155Z,5.03
2023-01-23T17:46:26.320Z,5.06
2023-01-23T17:48:54.517Z,5.06
2023-01-23T17:51:23.315Z,5.18
2023-01-23T17:53:50.614Z,5.04
2023-01-23T17:56:17.678Z,4.91
2023-01-23T17:58:44.873Z,4.94
2023-01-23T18:01:24.438Z,4.96
2023-01-23T18:03:52.544Z,4.96
2023-01-23T18:06:19.624Z,4.91
2023-01-23T18:08:46.829Z,4.79
2023-01-23T18:11:24.338Z,4.92
2023-01-23T18:14:15.622Z,4.71
2023-01-23T18:16:45.923Z,4.69
2023-01-23T18:19:21.606Z,4.78
2023-01-23T18:21:51.668Z,4.79
2023-01-23T18:24:30.553Z,4.79
2023-01-23T18:27:27.168Z,4.56
2023-01-23T18:30:06.431Z,4.67
2023-01-23T18:33:11.379Z,4.55
2023-01-23T18:36:00.873Z,4.45
2023-01-23T18:38:47.581Z,4.45
2023-01-23T18:41:20.368Z,4.39
2023-01-23T18:43:59.675Z,4.30
2023-01-23T18:46:28.970Z,4.24
2023-01-23T18:48:58.273Z,4.27
2023-01-23T18:51:36.117Z,4.41
2023-01-23T18:54:13.380Z,4.38
2023-01-23T18:56:57.161Z,4.35
2023-01-23T18:59:34.650Z,4.54
2023-01-23T19:02:26.735Z,4.26
2023-01-23T19:05:15.572Z,4.37
2023-01-23T19:07:46.296Z,4.37
2023-01-23T19:10:21.008Z,4.46
2023-01-23T19:13:16.458Z,4.38
2023-01-23T19:15:43.556Z,4.40
2023-01-23T19:18:14.236Z,4.45
2023-01-23T19:20:52.276Z,4.20
2023-01-23T19:23:41.960Z,4.36
2023-01-23T19:26:15.577Z,4.28
2023-01-23T19:28:45.075Z,4.11
2023-01-23T19:31:34.857Z,4.04
2023-01-23T19:34:04.747Z,4.13
2023-01-23T19:36:36.005Z,4.10
2023-01-23T19:39:08.125Z,3.98
2023-01-23T19:41:50.529Z,3.92
2023-01-23T19:44:22.402Z,4.11
2023-01-23T19:46:50.889Z,3.99
2023-01-23T19:49:19.077Z,3.93
2023-01-23T19:51:48.437Z,3.89
2023-01-23T19:54:17.314Z,4.08
2023-01-23T19:56:45.079Z,4.12
2023-01-23T19:59:46.171Z,3.96
2023-01-23T20:02:20.989Z,3.80
2023-01-23T20:04:48.280Z,3.87
2023-01-23T20:07:15.046Z,4.06
2023-01-23T20:09:42.278Z,4.10
2023-01-23T20:12:12.462Z,3.99
2023-01-23T20:14:39.815Z,3.89
2023-01-23T20:17:07.163Z,4.04
2023-01-23T20:19:34.532Z,3.95
2023-01-23T20:22:01.691Z,3.80
2023-01-23T20:24:29.135Z,3.83
2023-01-23T20:26:56.322Z,3.91
2023-01-23T20:32:33.986Z,3.78
2023-01-23T20:35:01.489Z,3.76
2023-01-23T20:37:28.482Z,3.74
2023-01-23T20:39:55.505Z,3.67
2023-01-23T20:42:22.430Z,3.49
2023-01-23T20:44:49.485Z,3.74
2023-01-23T20:47:16.291Z,3.39
2023-01-23T20:49:43.790Z,3.59
2023-01-23T20:52:29.248Z,3.37
2023-01-23T20:54:56.091Z,3.38
2023-01-23T20:57:22.852Z,3.47
2023-01-23T20:59:49.699Z,3.39
2023-01-23T21:02:28.305Z,3.45
2023-01-23T21:04:55.619Z,3.47
2023-01-23T21:07:22.957Z,3.51
2023-01-23T21:09:50.036Z,3.53
2023-01-23T21:12:16.947Z,3.51
2023-01-23T21:14:43.682Z,3.49
2023-01-23T21:17:10.508Z,3.38
2023-01-23T21:19:39.082Z,3.46
2023-01-23T21:22:06.918Z,3.44
2023-01-23T21:24:39.490Z,3.29
2023-01-23T21:27:13.608Z,3.36
2023-01-23T21:29:40.598Z,3.30
2023-01-23T21:32:07.408Z,3.30
2023-01-23T21:34:34.255Z,3.27
2023-01-23T21:37:01.103Z,3.36
2023-01-23T21:39:27.947Z,3.43
2023-01-23T21:41:54.716Z,3.16
2023-01-23T21:44:21.526Z,3.04
2023-01-23T21:46:49.220Z,3.09
2023-01-23T21:49:16.080Z,3.14
2023-01-23T21:51:44.765Z,3.19
2023-01-23T21:54:11.663Z,3.10
2023-01-23T21:56:38.536Z,3.15
2023-01-23T21:59:05.570Z,3.07
2023-01-23T22:01:33.257Z,3.03
2023-01-23T22:04:09.303Z,2.93
2023-01-23T22:06:38.210Z,3.10
2023-01-23T22:09:05.716Z,3.16
2023-01-23T22:11:32.906Z,3.00
2023-01-23T22:14:00.248Z,2.96
2023-01-23T22:16:45.634Z,3.05
2023-01-23T22:19:15.592Z,2.98
2023-01-23T22:21:43.867Z,2.97
2023-01-23T22:24:10.936Z,2.75
2023-01-23T22:26:37.873Z,2.81
2023-01-23T22:29:04.728Z,2.86
2023-01-23T22:31:31.720Z,2.91
2023-01-23T22:33:58.603Z,2.89
2023-01-23T22:36:25.775Z,2.82
2023-01-23T22:38:54.394Z,3.01
2023-01-23T22:41:22.200Z,2.96
2023-01-23T22:43:56.925Z,3.06
2023-01-23T22:46:24.095Z,2.89
2023-01-23T22:48:51.765Z,2.86
2023-01-23T22:51:24.180Z,2.86
2023-01-23T22:53:52.427Z,2.72
2023-01-23T22:56:19.531Z,2.71
2023-01-23T22:58:50.817Z,2.79
2023-01-23T23:01:18.456Z,2.74
2023-01-23T23:03:45.544Z,2.61
2023-01-23T23:06:14.519Z,2.69
2023-01-23T23:08:42.194Z,2.79
2023-01-23T23:11:19.311Z,2.91
2023-01-23T23:13:46.648Z,2.85
2023-01-23T23:16:26.143Z,2.87
2023-01-23T23:18:55.317Z,2.78
2023-01-23T23:21:25.384Z,2.91
2023-01-23T23:23:57.304Z,2.86
2023-01-23T23:26:26.502Z,2.66
2023-01-23T23:28:54.705Z,2.74
2023-01-23T23:31:21.683Z,2.74
2023-01-23T23:33:48.501Z,2.58
2023-01-23T23:36:15.331Z,2.61
2023-01-23T23:38:42.239Z,2.55
2023-01-23T23:41:12.554Z,2.72
2023-01-23T23:43:39.591Z,2.59
2023-01-23T23:46:08.192Z,2.55
2023-01-23T23:48:36.751Z,2.58
2023-01-23T23:51:06.696Z,2.53
2023-01-23T23:53:34.787Z,2.52
2023-01-23T23:56:01.685Z,2.58
2023-01-23T23:58:28.542Z,2.54
